Grates Cove, Canada
Current Conditions -  °F | °C
As of 2:07 PM on Thursday 27 Nov 2014 (Local Time) from CYYT Reporting Station
Moderate Rain Moderate Rain  
Wind Chill: 33°   Ceiling: 200
Heat Index: 39°   Visibility: 0.5mi
Dew Point: 39°   Wind: 9mph
Humidity: 100%   Direction: 70°ENE
Pressure: 29.53"   Gusts: NA
Location:  48.17°N, 52.93°W
Report Text: CYYT 271707Z 07008KT 1/2SM R16/5500VP6000FT/U RA FG VV002 04/04 A2953 RMK FG8 PRESFR SLP006
Loading
Personal Weather Stations






























Interactive Weather Map New forecast layout! Learn more

10-Day Weather Forecast

Advertisements
Track Severe Weather on mobile